Time,TemperatureF,DewpointF,PressureIn,WindDirection,WindDirectionDegrees,WindSpeedMPH,WindSpeedGustMPH,Humidity,HourlyPrecipIn,Conditions,Clouds,dailyrainin,SoftwareType,DateUTC
2013-05-17 00:01:00,51.0,49.0,29.96,WSW,240,0.0,0.0,94,0.00,,,0.00,weatherlink.com 1.10,2013-05-17 07:01:00,
2013-05-17 00:16:00,50.3,49.0,29.97,WSW,240,0.0,0.0,94,0.00,,,0.00,weatherlink.com 1.10,2013-05-17 07:16:00,
2013-05-17 00:31:00,49.7,48.0,29.97,WSW,240,0.0,0.0,94,0.00,,,0.00,weatherlink.com 1.10,2013-05-17 07:31:00,
2013-05-17 00:46:00,49.3,48.0,29.97,WSW,240,0.0,0.0,95,0.00,,,0.00,weatherlink.com 1.10,2013-05-17 07:46:00,
2013-05-17 01:01:00,49.3,48.0,29.98,WSW,240,0.0,0.0,95,0.00,,,0.00,weatherlink.com 1.10,2013-05-17 08:01:00,
2013-05-17 01:16:00,49.6,49.0,29.97,WSW,240,0.0,0.0,96,0.00,,,0.00,weatherlink.com 1.10,2013-05-17 08:16:00,
2013-05-17 01:31:00,49.8,49.0,29.97,WSW,240,0.0,0.0,96,0.00,,,0.00,weatherlink.com 1.10,2013-05-17 08:31:00,
2013-05-17 01:46:00,50.0,49.0,29.97,WSW,240,0.0,0.0,96,0.00,,,0.00,weatherlink.com 1.10,2013-05-17 08:46:00,
2013-05-17 02:01:00,50.0,49.0,29.97,WSW,240,0.0,0.0,96,0.00,,,0.00,weatherlink.com 1.10,2013-05-17 09:01:00,
2013-05-17 02:16:00,50.0,49.0,29.97,WSW,240,0.0,0.0,96,0.00,,,0.00,weatherlink.com 1.10,2013-05-17 09:16:00,
2013-05-17 02:31:00,50.0,49.0,29.97,WSW,240,0.0,0.0,96,0.00,,,0.00,weatherlink.com 1.10,2013-05-17 09:31:00,
2013-05-17 02:46:00,49.6,48.0,29.97,WSW,240,0.0,0.0,95,0.00,,,0.00,weatherlink.com 1.10,2013-05-17 09:46:00,
2013-05-17 03:01:00,49.1,48.0,29.97,WSW,240,0.0,0.0,95,0.00,,,0.00,weatherlink.com 1.10,2013-05-17 10:01:00,
2013-05-17 03:16:00,48.5,47.0,29.97,WSW,240,0.0,0.0,95,0.00,,,0.00,weatherlink.com 1.10,2013-05-17 10:16:00,
2013-05-17 03:31:00,48.2,47.0,29.97,WSW,239,0.0,0.0,96,0.00,,,0.00,weatherlink.com 1.10,2013-05-17 10:31:00,
2013-05-17 03:46:00,47.9,47.0,29.97,WSW,240,0.0,0.0,96,0.00,,,0.00,weatherlink.com 1.10,2013-05-17 10:46:00,
2013-05-17 04:01:00,47.6,47.0,29.97,WSW,240,0.0,0.0,96,0.00,,,0.00,weatherlink.com 1.10,2013-05-17 11:01:00,
2013-05-17 04:16:00,47.2,46.0,29.98,WSW,240,0.0,0.0,96,0.00,,,0.00,weatherlink.com 1.10,2013-05-17 11:16:00,
2013-05-17 04:31:00,47.1,46.0,29.98,WSW,240,0.0,0.0,96,0.00,,,0.00,weatherlink.com 1.10,2013-05-17 11:31:00,
2013-05-17 04:46:00,46.9,46.0,29.98,WSW,240,0.0,0.0,96,0.00,,,0.00,weatherlink.com 1.10,2013-05-17 11:46:00,
2013-05-17 05:01:00,46.7,46.0,29.98,WSW,240,0.0,0.0,96,0.00,,,0.00,weatherlink.com 1.10,2013-05-17 12:01:00,
2013-05-17 05:16:00,46.4,45.0,29.98,WSW,240,0.0,0.0,96,0.00,,,0.00,weatherlink.com 1.10,2013-05-17 12:16:00,
2013-05-17 05:31:00,46.2,45.0,29.98,WSW,240,0.0,0.0,96,0.00,,,0.00,weatherlink.com 1.10,2013-05-17 12:31:00,
2013-05-17 05:46:00,46.0,45.0,29.99,WSW,240,0.0,0.0,96,0.00,,,0.00,weatherlink.com 1.10,2013-05-17 12:46:00,
2013-05-17 06:01:00,46.0,45.0,29.99,WSW,240,0.0,0.0,96,0.00,,,0.00,weatherlink.com 1.10,2013-05-17 13:01:00,
2013-05-17 06:16:00,46.1,45.0,29.99,WSW,240,0.0,0.0,97,0.00,,,0.00,weatherlink.com 1.10,2013-05-17 13:16:00,
2013-05-17 06:31:00,46.4,46.0,29.99,WSW,239,0.0,0.0,97,0.00,,,0.00,weatherlink.com 1.10,2013-05-17 13:31:00,
2013-05-17 06:46:00,47.0,46.0,30.00,WSW,240,0.0,0.0,97,0.00,,,0.00,weatherlink.com 1.10,2013-05-17 13:46:00,
2013-05-17 07:01:00,47.6,47.0,30.00,WSW,240,0.0,0.0,97,0.00,,,0.00,weatherlink.com 1.10,2013-05-17 14:01:00,
2013-05-17 07:16:00,48.5,48.0,30.00,WSW,240,0.0,0.0,97,0.00,,,0.00,weatherlink.com 1.10,2013-05-17 14:16:00,
2013-05-17 07:32:00,49.2,48.0,30.00,WSW,240,0.0,0.0,97,0.00,,,0.00,weatherlink.com 1.10,2013-05-17 14:32:00,
2013-05-17 07:47:00,50.1,49.0,30.00,WSW,240,0.0,1.0,95,0.00,,,0.00,weatherlink.com 1.10,2013-05-17 14:47:00,
2013-05-17 08:02:00,50.7,49.0,30.00,WSW,240,0.0,1.0,93,0.00,,,0.00,weatherlink.com 1.10,2013-05-17 15:02:00,
2013-05-17 08:17:00,51.4,49.0,30.00,WSW,240,0.0,1.0,91,0.00,,,0.00,weatherlink.com 1.10,2013-05-17 15:17:00,
2013-05-17 08:32:00,52.0,49.0,30.00,WSW,240,0.0,2.0,90,0.00,,,0.00,weatherlink.com 1.10,2013-05-17 15:32:00,
2013-05-17 08:47:00,52.8,50.0,30.00,WSW,240,0.0,0.0,89,0.00,,,0.00,weatherlink.com 1.10,2013-05-17 15:47:00,
2013-05-17 09:02:00,53.7,49.0,30.00,WSW,240,0.0,0.0,85,0.00,,,0.00,weatherlink.com 1.10,2013-05-17 16:02:00,
2013-05-17 09:17:00,53.5,50.0,30.00,WSW,240,0.0,0.0,86,0.00,,,0.00,weatherlink.com 1.10,2013-05-17 16:17:00,
2013-05-17 09:32:00,53.2,49.0,30.00,WSW,239,0.0,0.0,85,0.00,,,0.00,weatherlink.com 1.10,2013-05-17 16:32:00,
2013-05-17 09:47:00,53.0,50.0,30.00,WSW,240,0.0,0.0,88,0.00,,,0.00,weatherlink.com 1.10,2013-05-17 16:47:00,
2013-05-17 10:02:00,53.0,50.0,30.00,WSW,240,0.0,1.0,88,0.00,,,0.00,weatherlink.com 1.10,2013-05-17 17:02:00,
2013-05-17 10:17:00,55.0,49.0,30.00,WSW,240,0.0,1.0,81,0.00,,,0.00,weatherlink.com 1.10,2013-05-17 17:17:00,
2013-05-17 10:32:00,55.0,48.0,30.00,WSW,240,0.0,1.0,77,0.00,,,0.00,weatherlink.com 1.10,2013-05-17 17:32:00,
2013-05-17 10:47:00,56.1,49.0,30.00,WSW,240,0.0,1.0,76,0.00,,,0.00,weatherlink.com 1.10,2013-05-17 17:47:00,
2013-05-17 11:02:00,56.3,48.0,30.00,WSW,240,0.0,0.0,75,0.00,,,0.00,weatherlink.com 1.10,2013-05-17 18:02:00,
2013-05-17 11:17:00,56.6,49.0,30.00,WSW,240,0.0,1.0,76,0.00,,,0.00,weatherlink.com 1.10,2013-05-17 18:17:00,
2013-05-17 11:32:00,58.8,48.0,29.99,WSW,240,0.0,4.0,67,0.00,,,0.00,weatherlink.com 1.10,2013-05-17 18:32:00,
2013-05-17 11:47:00,60.1,50.0,29.99,WSW,240,0.0,4.0,69,0.00,,,0.00,weatherlink.com 1.10,2013-05-17 18:47:00,
2013-05-17 12:02:00,59.9,48.0,29.99,WSW,240,0.0,1.0,65,0.00,,,0.00,weatherlink.com 1.10,2013-05-17 19:02:00,
2013-05-17 12:17:00,58.5,49.0,30.00,WSW,240,0.0,1.0,72,0.00,,,0.00,weatherlink.com 1.10,2013-05-17 19:17:00,
2013-05-17 12:32:00,57.6,50.0,30.00,WSW,240,0.0,0.0,76,0.00,,,0.00,weatherlink.com 1.10,2013-05-17 19:32:00,
2013-05-17 12:47:00,57.4,50.0,30.00,WSW,240,0.0,1.0,75,0.00,,,0.00,weatherlink.com 1.10,2013-05-17 19:47:00,
2013-05-17 13:02:00,58.1,47.0,30.00,WSW,240,0.0,0.0,67,0.00,,,0.00,weatherlink.com 1.10,2013-05-17 20:02:00,
2013-05-17 13:17:00,58.8,47.0,30.00,WSW,240,0.0,3.0,65,0.00,,,0.00,weatherlink.com 1.10,2013-05-17 20:17:00,
2013-05-17 13:32:00,57.7,47.0,30.01,WSW,240,0.0,2.0,67,0.00,,,0.00,weatherlink.com 1.10,2013-05-17 20:32:00,
2013-05-17 13:47:00,57.4,47.0,30.00,WSW,240,0.0,1.0,68,0.00,,,0.00,weatherlink.com 1.10,2013-05-17 20:47:00,
2013-05-17 14:02:00,58.1,47.0,30.00,WSW,240,0.0,1.0,67,0.00,,,0.00,weatherlink.com 1.10,2013-05-17 21:02:00,
2013-05-17 14:17:00,59.1,48.0,30.00,WSW,239,0.0,1.0,66,0.00,,,0.00,weatherlink.com 1.10,2013-05-17 21:17:00,
2013-05-17 14:32:00,59.8,48.0,30.00,WSW,240,0.0,0.0,65,0.00,,,0.00,weatherlink.com 1.10,2013-05-17 21:32:00,
2013-05-17 14:47:00,61.0,47.0,30.00,WSW,240,1.0,2.0,60,0.00,,,0.00,weatherlink.com 1.10,2013-05-17 21:47:00,
2013-05-17 15:02:00,61.7,47.0,30.00,WSW,239,0.0,2.0,58,0.00,,,0.00,weatherlink.com 1.10,2013-05-17 22:02:00,
2013-05-17 15:17:00,61.1,47.0,30.00,WSW,240,0.0,1.0,60,0.00,,,0.00,weatherlink.com 1.10,2013-05-17 22:17:00,
2013-05-17 15:32:00,60.3,48.0,30.00,WSW,240,0.0,1.0,64,0.00,,,0.00,weatherlink.com 1.10,2013-05-17 22:32:00,
2013-05-17 15:47:00,59.9,47.0,30.01,WSW,240,0.0,1.0,63,0.00,,,0.00,weatherlink.com 1.10,2013-05-17 22:47:00,
2013-05-17 16:02:00,59.2,49.0,30.01,WSW,240,0.0,0.0,70,0.00,,,0.00,weatherlink.com 1.10,2013-05-17 23:02:00,
2013-05-17 16:17:00,58.6,51.0,30.01,WSW,240,0.0,0.0,75,0.00,,,0.00,weatherlink.com 1.10,2013-05-17 23:17:00,
2013-05-17 16:32:00,57.7,49.0,30.01,WSW,240,0.0,0.0,73,0.00,,,0.00,weatherlink.com 1.10,2013-05-17 23:32:00,
2013-05-17 16:47:00,57.7,52.0,30.01,WSW,240,0.0,0.0,82,0.00,,,0.00,weatherlink.com 1.10,2013-05-17 23:47:00,
2013-05-17 17:02:00,58.6,50.0,30.01,WSW,240,0.0,0.0,73,0.00,,,0.00,weatherlink.com 1.10,2013-05-18 00:02:00,
2013-05-17 17:17:00,59.0,51.0,30.01,WSW,240,0.0,0.0,74,0.00,,,0.00,weatherlink.com 1.10,2013-05-18 00:17:00,
2013-05-17 17:32:00,59.4,50.0,30.01,WSW,239,0.0,0.0,72,0.00,,,0.00,weatherlink.com 1.10,2013-05-18 00:32:00,
2013-05-17 17:47:00,59.1,50.0,30.01,WSW,240,0.0,0.0,71,0.00,,,0.00,weatherlink.com 1.10,2013-05-18 00:47:00,
2013-05-17 18:02:00,58.6,50.0,30.01,WSW,239,0.0,0.0,72,0.00,,,0.00,weatherlink.com 1.10,2013-05-18 01:02:00,
2013-05-17 18:17:00,58.3,50.0,30.01,WSW,240,0.0,0.0,75,0.00,,,0.00,weatherlink.com 1.10,2013-05-18 01:17:00,
2013-05-17 18:32:00,58.1,50.0,30.01,WSW,240,0.0,0.0,75,0.00,,,0.00,weatherlink.com 1.10,2013-05-18 01:32:00,
2013-05-17 18:47:00,57.6,50.0,30.02,WSW,240,0.0,1.0,75,0.00,,,0.00,weatherlink.com 1.10,2013-05-18 01:47:00,
2013-05-17 19:02:00,57.6,50.0,30.02,WSW,239,0.0,0.0,75,0.00,,,0.00,weatherlink.com 1.10,2013-05-18 02:02:00,
2013-05-17 19:17:00,57.3,50.0,30.02,WSW,240,0.0,0.0,77,0.00,,,0.00,weatherlink.com 1.10,2013-05-18 02:17:00,
2013-05-17 19:32:00,57.5,49.0,30.02,WSW,240,0.0,2.0,74,0.00,,,0.00,weatherlink.com 1.10,2013-05-18 02:32:00,
2013-05-17 19:48:00,57.0,51.0,30.03,WSW,240,0.0,2.0,80,0.00,,,0.00,weatherlink.com 1.10,2013-05-18 02:48:00,
2013-05-17 20:03:00,56.6,51.0,30.03,WSW,239,0.0,2.0,80,0.00,,,0.00,weatherlink.com 1.10,2013-05-18 03:03:00,
2013-05-17 20:18:00,56.3,50.0,30.03,WSW,240,0.0,1.0,79,0.00,,,0.00,weatherlink.com 1.10,2013-05-18 03:18:00,
2013-05-17 20:33:00,56.3,51.0,30.04,WSW,240,0.0,0.0,81,0.00,,,0.00,weatherlink.com 1.10,2013-05-18 03:33:00,
2013-05-17 20:48:00,56.0,51.0,30.04,WSW,240,0.0,0.0,83,0.00,,,0.00,weatherlink.com 1.10,2013-05-18 03:48:00,
2013-05-17 21:03:00,55.6,51.0,30.04,WSW,240,0.0,0.0,84,0.00,,,0.00,weatherlink.com 1.10,2013-05-18 04:03:00,
2013-05-17 21:18:00,55.4,51.0,30.05,WSW,240,0.0,0.0,85,0.00,,,0.00,weatherlink.com 1.10,2013-05-18 04:18:00,
2013-05-17 21:33:00,54.5,51.0,30.06,WSW,239,0.0,0.0,87,0.00,,,0.00,weatherlink.com 1.10,2013-05-18 04:33:00,
2013-05-17 21:48:00,53.6,50.0,30.06,WSW,239,0.0,0.0,88,0.00,,,0.00,weatherlink.com 1.10,2013-05-18 04:48:00,
2013-05-17 22:03:00,52.6,50.0,30.06,WSW,240,0.0,0.0,89,0.00,,,0.00,weatherlink.com 1.10,2013-05-18 05:03:00,
2013-05-17 22:18:00,51.8,49.0,30.06,WSW,240,0.0,0.0,89,0.00,,,0.00,weatherlink.com 1.10,2013-05-18 05:18:00,
2013-05-17 22:33:00,51.1,48.0,30.07,WSW,240,0.0,0.0,89,0.00,,,0.00,weatherlink.com 1.10,2013-05-18 05:33:00,
2013-05-17 22:48:00,51.0,48.0,30.07,WSW,240,0.0,0.0,89,0.00,,,0.00,weatherlink.com 1.10,2013-05-18 05:48:00,
2013-05-17 23:03:00,51.0,48.0,30.07,WSW,240,0.0,0.0,90,0.00,,,0.00,weatherlink.com 1.10,2013-05-18 06:03:00,
2013-05-17 23:18:00,51.2,48.0,30.07,WSW,240,0.0,0.0,89,0.00,,,0.00,weatherlink.com 1.10,2013-05-18 06:18:00,
2013-05-17 23:33:00,51.2,48.0,30.07,WSW,240,0.0,0.0,88,0.00,,,0.00,weatherlink.com 1.10,2013-05-18 06:33:00,
2013-05-17 23:48:00,51.3,48.0,30.08,WSW,240,0.0,0.0,88,0.00,,,0.00,weatherlink.com 1.10,2013-05-18 06:48:00,